sensor_id;sensor_type;location;lat;lon;timestamp;temperature;humidity
2226;DHT22;1119;48.288;8.726;2023-06-22T00:01:34;21.40;99.90
2226;DHT22;1119;48.288;8.726;2023-06-22T00:04:02;21.30;99.90
2226;DHT22;1119;48.288;8.726;2023-06-22T00:06:29;21.30;99.90
2226;DHT22;1119;48.288;8.726;2023-06-22T00:08:58;21.30;99.90
2226;DHT22;1119;48.288;8.726;2023-06-22T00:11:25;21.20;99.90
2226;DHT22;1119;48.288;8.726;2023-06-22T00:13:53;21.20;99.90
2226;DHT22;1119;48.288;8.726;2023-06-22T00:16:20;21.20;99.90
2226;DHT22;1119;48.288;8.726;2023-06-22T00:18:48;21.20;99.90
2226;DHT22;1119;48.288;8.726;2023-06-22T00:21:15;21.10;99.90
2226;DHT22;1119;48.288;8.726;2023-06-22T00:23:42;21.10;99.90
2226;DHT22;1119;48.288;8.726;2023-06-22T00:26:11;21.10;99.90
2226;DHT22;1119;48.288;8.726;2023-06-22T00:28:38;21.10;99.90
2226;DHT22;1119;48.288;8.726;2023-06-22T00:31:05;21.10;99.90
2226;DHT22;1119;48.288;8.726;2023-06-22T00:33:33;21.00;99.90
2226;DHT22;1119;48.288;8.726;2023-06-22T00:36:00;20.90;99.90
2226;DHT22;1119;48.288;8.726;2023-06-22T00:38:30;20.80;99.90
2226;DHT22;1119;48.288;8.726;2023-06-22T00:40:57;20.70;99.90
2226;DHT22;1119;48.288;8.726;2023-06-22T00:43:26;20.70;99.90
2226;DHT22;1119;48.288;8.726;2023-06-22T00:45:55;20.70;99.90
2226;DHT22;1119;48.288;8.726;2023-06-22T00:48:24;20.60;99.90
2226;DHT22;1119;48.288;8.726;2023-06-22T00:50:51;20.50;99.90
2226;DHT22;1119;48.288;8.726;2023-06-22T00:53:19;20.50;99.90
2226;DHT22;1119;48.288;8.726;2023-06-22T00:55:47;20.50;99.90
2226;DHT22;1119;48.288;8.726;2023-06-22T00:58:17;20.50;99.90
2226;DHT22;1119;48.288;8.726;2023-06-22T01:00:51;20.40;99.90
2226;DHT22;1119;48.288;8.726;2023-06-22T01:03:20;20.40;99.90
2226;DHT22;1119;48.288;8.726;2023-06-22T01:05:48;20.40;99.90
2226;DHT22;1119;48.288;8.726;2023-06-22T01:08:24;20.50;99.90
2226;DHT22;1119;48.288;8.726;2023-06-22T01:11:05;20.50;99.90
2226;DHT22;1119;48.288;8.726;2023-06-22T01:13:39;20.40;99.90
2226;DHT22;1119;48.288;8.726;2023-06-22T01:16:20;20.40;99.90
2226;DHT22;1119;48.288;8.726;2023-06-22T01:18:52;20.30;99.90
2226;DHT22;1119;48.288;8.726;2023-06-22T01:21:24;20.20;99.90
2226;DHT22;1119;48.288;8.726;2023-06-22T01:24:01;20.20;99.90
2226;DHT22;1119;48.288;8.726;2023-06-22T01:26:39;20.20;99.90
2226;DHT22;1119;48.288;8.726;2023-06-22T01:29:11;20.20;99.90
2226;DHT22;1119;48.288;8.726;2023-06-22T01:31:40;20.20;99.90
2226;DHT22;1119;48.288;8.726;2023-06-22T01:34:09;20.20;99.90
2226;DHT22;1119;48.288;8.726;2023-06-22T01:36:38;20.20;99.90
2226;DHT22;1119;48.288;8.726;2023-06-22T01:39:06;20.20;99.90
2226;DHT22;1119;48.288;8.726;2023-06-22T01:41:36;20.10;99.90
2226;DHT22;1119;48.288;8.726;2023-06-22T01:44:05;20.10;99.90
2226;DHT22;1119;48.288;8.726;2023-06-22T01:46:34;20.10;99.90
2226;DHT22;1119;48.288;8.726;2023-06-22T01:49:02;20.10;99.90
2226;DHT22;1119;48.288;8.726;2023-06-22T01:51:31;20.00;99.90
2226;DHT22;1119;48.288;8.726;2023-06-22T01:53:59;20.00;99.90
2226;DHT22;1119;48.288;8.726;2023-06-22T01:56:28;20.00;99.90
2226;DHT22;1119;48.288;8.726;2023-06-22T01:59:00;20.00;99.90
2226;DHT22;1119;48.288;8.726;2023-06-22T02:01:39;19.90;99.90
2226;DHT22;1119;48.288;8.726;2023-06-22T02:04:13;19.90;99.90
2226;DHT22;1119;48.288;8.726;2023-06-22T02:06:46;19.90;99.90
2226;DHT22;1119;48.288;8.726;2023-06-22T02:09:17;19.90;99.90
2226;DHT22;1119;48.288;8.726;2023-06-22T02:11:47;19.90;99.90
2226;DHT22;1119;48.288;8.726;2023-06-22T02:14:18;20.00;99.90
2226;DHT22;1119;48.288;8.726;2023-06-22T02:16:47;19.80;99.90
2226;DHT22;1119;48.288;8.726;2023-06-22T02:19:14;19.60;99.90
2226;DHT22;1119;48.288;8.726;2023-06-22T02:21:44;19.60;99.90
2226;DHT22;1119;48.288;8.726;2023-06-22T02:24:12;19.60;99.90
2226;DHT22;1119;48.288;8.726;2023-06-22T02:26:40;19.70;99.90
2226;DHT22;1119;48.288;8.726;2023-06-22T02:29:08;19.60;99.90
2226;DHT22;1119;48.288;8.726;2023-06-22T02:31:35;19.50;99.90
2226;DHT22;1119;48.288;8.726;2023-06-22T02:34:04;19.40;99.90
2226;DHT22;1119;48.288;8.726;2023-06-22T02:36:31;19.40;99.90
2226;DHT22;1119;48.288;8.726;2023-06-22T02:39:00;19.40;99.90
2226;DHT22;1119;48.288;8.726;2023-06-22T02:41:30;19.40;99.90
2226;DHT22;1119;48.288;8.726;2023-06-22T02:43:57;19.30;99.90
2226;DHT22;1119;48.288;8.726;2023-06-22T02:46:25;19.20;99.90
2226;DHT22;1119;48.288;8.726;2023-06-22T02:48:52;19.10;99.90
2226;DHT22;1119;48.288;8.726;2023-06-22T02:51:21;19.10;99.90
2226;DHT22;1119;48.288;8.726;2023-06-22T02:53:48;19.00;99.90
2226;DHT22;1119;48.288;8.726;2023-06-22T02:56:23;19.00;99.90
2226;DHT22;1119;48.288;8.726;2023-06-22T02:58:53;19.10;99.90
2226;DHT22;1119;48.288;8.726;2023-06-22T03:01:26;19.10;99.90
2226;DHT22;1119;48.288;8.726;2023-06-22T03:03:56;19.00;99.90
2226;DHT22;1119;48.288;8.726;2023-06-22T03:06:24;19.10;99.90
2226;DHT22;1119;48.288;8.726;2023-06-22T03:08:58;19.20;99.90
2226;DHT22;1119;48.288;8.726;2023-06-22T03:11:28;19.20;99.90
2226;DHT22;1119;48.288;8.726;2023-06-22T03:13:57;19.20;99.90
2226;DHT22;1119;48.288;8.726;2023-06-22T03:16:25;19.20;99.90
2226;DHT22;1119;48.288;8.726;2023-06-22T03:18:52;19.10;99.90
2226;DHT22;1119;48.288;8.726;2023-06-22T03:21:23;19.00;99.90
2226;DHT22;1119;48.288;8.726;2023-06-22T03:23:52;19.00;99.90
2226;DHT22;1119;48.288;8.726;2023-06-22T03:26:19;19.00;99.90
2226;DHT22;1119;48.288;8.726;2023-06-22T03:28:47;19.10;99.90
2226;DHT22;1119;48.288;8.726;2023-06-22T03:31:14;19.00;99.90
2226;DHT22;1119;48.288;8.726;2023-06-22T03:33:41;19.00;99.90
2226;DHT22;1119;48.288;8.726;2023-06-22T03:36:08;18.90;99.90
2226;DHT22;1119;48.288;8.726;2023-06-22T03:38:37;18.90;99.90
2226;DHT22;1119;48.288;8.726;2023-06-22T03:41:05;18.90;99.90
2226;DHT22;1119;48.288;8.726;2023-06-22T03:43:32;18.90;99.90
2226;DHT22;1119;48.288;8.726;2023-06-22T03:45:59;18.90;99.90
2226;DHT22;1119;48.288;8.726;2023-06-22T03:48:27;18.90;99.90
2226;DHT22;1119;48.288;8.726;2023-06-22T03:50:54;18.80;99.90
2226;DHT22;1119;48.288;8.726;2023-06-22T03:53:21;18.80;99.90
2226;DHT22;1119;48.288;8.726;2023-06-22T03:55:51;18.70;99.90
2226;DHT22;1119;48.288;8.726;2023-06-22T03:58:20;18.70;99.90
2226;DHT22;1119;48.288;8.726;2023-06-22T04:00:48;18.80;99.90
2226;DHT22;1119;48.288;8.726;2023-06-22T04:03:17;18.80;99.90
2226;DHT22;1119;48.288;8.726;2023-06-22T04:05:45;18.80;99.90
2226;DHT22;1119;48.288;8.726;2023-06-22T04:08:13;18.80;99.90
2226;DHT22;1119;48.288;8.726;2023-06-22T04:10:40;18.80;99.90
2226;DHT22;1119;48.288;8.726;2023-06-22T04:13:09;18.80;99.90
2226;DHT22;1119;48.288;8.726;2023-06-22T04:15:36;19.00;99.90
2226;DHT22;1119;48.288;8.726;2023-06-22T04:18:04;19.00;99.90
2226;DHT22;1119;48.288;8.726;2023-06-22T04:20:32;19.10;99.90
2226;DHT22;1119;48.288;8.726;2023-06-22T04:22:59;19.20;99.90
2226;DHT22;1119;48.288;8.726;2023-06-22T04:25:26;19.30;99.90
2226;DHT22;1119;48.288;8.726;2023-06-22T04:27:54;19.30;99.90
2226;DHT22;1119;48.288;8.726;2023-06-22T04:30:22;19.30;99.90
2226;DHT22;1119;48.288;8.726;2023-06-22T04:32:50;19.30;99.90
2226;DHT22;1119;48.288;8.726;2023-06-22T04:35:22;19.30;99.90
2226;DHT22;1119;48.288;8.726;2023-06-22T04:37:49;19.40;99.90
2226;DHT22;1119;48.288;8.726;2023-06-22T04:40:21;19.40;99.90
2226;DHT22;1119;48.288;8.726;2023-06-22T04:42:49;19.40;99.90
2226;DHT22;1119;48.288;8.726;2023-06-22T04:45:20;19.40;99.90
2226;DHT22;1119;48.288;8.726;2023-06-22T04:47:49;19.50;99.90
2226;DHT22;1119;48.288;8.726;2023-06-22T04:50:16;19.60;99.90
2226;DHT22;1119;48.288;8.726;2023-06-22T04:52:46;19.60;99.90
2226;DHT22;1119;48.288;8.726;2023-06-22T04:55:14;19.60;99.90
2226;DHT22;1119;48.288;8.726;2023-06-22T04:57:44;19.80;99.90
2226;DHT22;1119;48.288;8.726;2023-06-22T05:00:15;19.90;99.90
2226;DHT22;1119;48.288;8.726;2023-06-22T05:02:46;19.90;99.90
2226;DHT22;1119;48.288;8.726;2023-06-22T05:05:14;20.00;99.90
2226;DHT22;1119;48.288;8.726;2023-06-22T05:07:43;20.10;99.90
2226;DHT22;1119;48.288;8.726;2023-06-22T05:10:11;20.10;99.90
2226;DHT22;1119;48.288;8.726;2023-06-22T05:12:39;20.20;99.90
2226;DHT22;1119;48.288;8.726;2023-06-22T05:15:08;20.30;99.90
2226;DHT22;1119;48.288;8.726;2023-06-22T05:17:35;20.40;99.90
2226;DHT22;1119;48.288;8.726;2023-06-22T05:20:10;20.60;99.90
2226;DHT22;1119;48.288;8.726;2023-06-22T05:22:38;20.70;99.90
2226;DHT22;1119;48.288;8.726;2023-06-22T05:25:09;20.80;99.90
2226;DHT22;1119;48.288;8.726;2023-06-22T05:27:37;21.00;99.90
2226;DHT22;1119;48.288;8.726;2023-06-22T05:30:06;21.10;99.90
2226;DHT22;1119;48.288;8.726;2023-06-22T05:32:34;21.10;99.90
2226;DHT22;1119;48.288;8.726;2023-06-22T05:35:02;21.10;99.90
2226;DHT22;1119;48.288;8.726;2023-06-22T05:37:31;21.10;99.90
2226;DHT22;1119;48.288;8.726;2023-06-22T05:39:58;21.20;99.90
2226;DHT22;1119;48.288;8.726;2023-06-22T05:42:25;21.20;99.90
2226;DHT22;1119;48.288;8.726;2023-06-22T05:44:52;21.20;99.90
2226;DHT22;1119;48.288;8.726;2023-06-22T05:47:20;21.20;99.90
2226;DHT22;1119;48.288;8.726;2023-06-22T05:49:48;21.30;99.90
2226;DHT22;1119;48.288;8.726;2023-06-22T05:52:15;21.40;99.90
2226;DHT22;1119;48.288;8.726;2023-06-22T05:54:44;21.30;99.90
2226;DHT22;1119;48.288;8.726;2023-06-22T05:57:11;21.30;99.90
2226;DHT22;1119;48.288;8.726;2023-06-22T05:59:39;21.30;99.90
2226;DHT22;1119;48.288;8.726;2023-06-22T06:02:06;21.40;99.90
2226;DHT22;1119;48.288;8.726;2023-06-22T06:04:33;21.50;99.90
2226;DHT22;1119;48.288;8.726;2023-06-22T06:07:01;21.70;99.90
2226;DHT22;1119;48.288;8.726;2023-06-22T06:09:28;21.70;99.90
2226;DHT22;1119;48.288;8.726;2023-06-22T06:11:57;22.00;99.90
2226;DHT22;1119;48.288;8.726;2023-06-22T06:14:24;22.20;99.90
2226;DHT22;1119;48.288;8.726;2023-06-22T06:16:51;22.30;99.90
2226;DHT22;1119;48.288;8.726;2023-06-22T06:19:19;22.40;99.90
2226;DHT22;1119;48.288;8.726;2023-06-22T06:21:46;22.70;99.90
2226;DHT22;1119;48.288;8.726;2023-06-22T06:24:13;22.90;99.90
2226;DHT22;1119;48.288;8.726;2023-06-22T06:26:41;23.00;99.90
2226;DHT22;1119;48.288;8.726;2023-06-22T06:29:09;23.20;99.90
2226;DHT22;1119;48.288;8.726;2023-06-22T06:31:37;23.30;99.90
2226;DHT22;1119;48.288;8.726;2023-06-22T06:34:04;23.40;99.90
2226;DHT22;1119;48.288;8.726;2023-06-22T06:36:31;23.40;99.90
2226;DHT22;1119;48.288;8.726;2023-06-22T06:38:58;23.30;99.90
2226;DHT22;1119;48.288;8.726;2023-06-22T06:41:25;23.30;99.90
2226;DHT22;1119;48.288;8.726;2023-06-22T06:43:53;23.30;99.90
2226;DHT22;1119;48.288;8.726;2023-06-22T06:46:21;23.30;99.90
2226;DHT22;1119;48.288;8.726;2023-06-22T06:48:49;23.40;99.90
2226;DHT22;1119;48.288;8.726;2023-06-22T06:51:16;23.90;99.90
2226;DHT22;1119;48.288;8.726;2023-06-22T06:53:43;24.60;99.90
2226;DHT22;1119;48.288;8.726;2023-06-22T06:56:10;25.10;99.90
2226;DHT22;1119;48.288;8.726;2023-06-22T07:01:07;25.90;99.90
2226;DHT22;1119;48.288;8.726;2023-06-22T07:03:36;26.20;99.70
2226;DHT22;1119;48.288;8.726;2023-06-22T07:06:03;26.40;98.60
2226;DHT22;1119;48.288;8.726;2023-06-22T07:08:31;26.70;98.00
2226;DHT22;1119;48.288;8.726;2023-06-22T07:14:07;27.10;97.20
2226;DHT22;1119;48.288;8.726;2023-06-22T07:16:35;27.40;96.40
2226;DHT22;1119;48.288;8.726;2023-06-22T07:19:04;27.40;95.60
2226;DHT22;1119;48.288;8.726;2023-06-22T07:21:31;27.70;94.10
2226;DHT22;1119;48.288;8.726;2023-06-22T07:23:58;27.80;93.30
2226;DHT22;1119;48.288;8.726;2023-06-22T07:26:25;27.90;93.20
2226;DHT22;1119;48.288;8.726;2023-06-22T07:28:53;28.10;92.80
2226;DHT22;1119;48.288;8.726;2023-06-22T07:31:20;28.30;91.80
2226;DHT22;1119;48.288;8.726;2023-06-22T07:33:47;28.50;90.90
2226;DHT22;1119;48.288;8.726;2023-06-22T07:36:16;28.70;90.50
2226;DHT22;1119;48.288;8.726;2023-06-22T07:38:44;28.80;90.10
2226;DHT22;1119;48.288;8.726;2023-06-22T07:41:12;28.80;89.90
2226;DHT22;1119;48.288;8.726;2023-06-22T07:43:39;28.60;89.30
2226;DHT22;1119;48.288;8.726;2023-06-22T07:46:07;28.40;90.50
2226;DHT22;1119;48.288;8.726;2023-06-22T07:48:37;28.40;90.60
2226;DHT22;1119;48.288;8.726;2023-06-22T07:51:05;28.50;89.80
2226;DHT22;1119;48.288;8.726;2023-06-22T07:53:34;28.40;89.90
2226;DHT22;1119;48.288;8.726;2023-06-22T07:56:01;28.40;90.30
2226;DHT22;1119;48.288;8.726;2023-06-22T07:58:32;28.50;89.60
2226;DHT22;1119;48.288;8.726;2023-06-22T08:01:00;28.30;90.10
2226;DHT22;1119;48.288;8.726;2023-06-22T08:03:28;28.20;90.40
2226;DHT22;1119;48.288;8.726;2023-06-22T08:05:56;28.00;91.20
2226;DHT22;1119;48.288;8.726;2023-06-22T08:08:23;27.70;91.80
2226;DHT22;1119;48.288;8.726;2023-06-22T08:10:52;27.40;92.20
2226;DHT22;1119;48.288;8.726;2023-06-22T08:13:22;27.00;92.90
2226;DHT22;1119;48.288;8.726;2023-06-22T08:15:49;26.80;93.70
2226;DHT22;1119;48.288;8.726;2023-06-22T08:18:17;26.60;94.40
2226;DHT22;1119;48.288;8.726;2023-06-22T08:20:44;26.70;95.20
2226;DHT22;1119;48.288;8.726;2023-06-22T08:23:11;26.80;94.40
2226;DHT22;1119;48.288;8.726;2023-06-22T08:25:38;27.10;94.00
2226;DHT22;1119;48.288;8.726;2023-06-22T08:28:07;27.40;92.90
2226;DHT22;1119;48.288;8.726;2023-06-22T08:30:34;27.60;92.60
2226;DHT22;1119;48.288;8.726;2023-06-22T08:33:02;27.60;92.30
2226;DHT22;1119;48.288;8.726;2023-06-22T08:35:29;27.70;91.60
2226;DHT22;1119;48.288;8.726;2023-06-22T08:37:56;27.90;91.40
2226;DHT22;1119;48.288;8.726;2023-06-22T08:40:25;28.00;92.00
2226;DHT22;1119;48.288;8.726;2023-06-22T08:42:52;27.90;92.00
2226;DHT22;1119;48.288;8.726;2023-06-22T08:45:21;28.00;91.20
2226;DHT22;1119;48.288;8.726;2023-06-22T08:47:48;28.20;91.10
2226;DHT22;1119;48.288;8.726;2023-06-22T08:50:15;28.30;90.70
2226;DHT22;1119;48.288;8.726;2023-06-22T08:52:43;28.30;90.60
2226;DHT22;1119;48.288;8.726;2023-06-22T08:55:11;28.50;90.30
2226;DHT22;1119;48.288;8.726;2023-06-22T08:57:40;28.50;90.50
2226;DHT22;1119;48.288;8.726;2023-06-22T09:00:09;28.50;91.90
2226;DHT22;1119;48.288;8.726;2023-06-22T09:02:46;28.50;91.40
2226;DHT22;1119;48.288;8.726;2023-06-22T09:05:14;28.50;91.40
2226;DHT22;1119;48.288;8.726;2023-06-22T09:07:41;28.50;91.50
2226;DHT22;1119;48.288;8.726;2023-06-22T09:10:09;28.70;90.80
2226;DHT22;1119;48.288;8.726;2023-06-22T09:12:37;28.80;90.70
2226;DHT22;1119;48.288;8.726;2023-06-22T09:15:05;29.10;89.70
2226;DHT22;1119;48.288;8.726;2023-06-22T09:17:34;29.20;90.10
2226;DHT22;1119;48.288;8.726;2023-06-22T09:20:05;29.20;89.20
2226;DHT22;1119;48.288;8.726;2023-06-22T09:22:36;29.20;88.60
2226;DHT22;1119;48.288;8.726;2023-06-22T09:25:04;29.30;88.40
2226;DHT22;1119;48.288;8.726;2023-06-22T09:27:33;29.50;86.30
2226;DHT22;1119;48.288;8.726;2023-06-22T09:30:00;29.60;86.40
2226;DHT22;1119;48.288;8.726;2023-06-22T09:32:29;29.70;86.40
2226;DHT22;1119;48.288;8.726;2023-06-22T09:34:56;29.70;88.90
2226;DHT22;1119;48.288;8.726;2023-06-22T09:37:25;29.60;88.30
2226;DHT22;1119;48.288;8.726;2023-06-22T09:39:52;29.50;88.10
2226;DHT22;1119;48.288;8.726;2023-06-22T09:42:19;29.50;88.40
2226;DHT22;1119;48.288;8.726;2023-06-22T09:44:46;29.30;89.00
2226;DHT22;1119;48.288;8.726;2023-06-22T09:47:14;29.30;88.70
2226;DHT22;1119;48.288;8.726;2023-06-22T09:49:41;29.50;87.90
2226;DHT22;1119;48.288;8.726;2023-06-22T09:52:08;29.70;86.80
2226;DHT22;1119;48.288;8.726;2023-06-22T09:54:38;29.90;86.70
2226;DHT22;1119;48.288;8.726;2023-06-22T09:57:06;30.00;85.40
2226;DHT22;1119;48.288;8.726;2023-06-22T09:59:33;30.10;86.30
2226;DHT22;1119;48.288;8.726;2023-06-22T10:02:00;29.90;85.90
2226;DHT22;1119;48.288;8.726;2023-06-22T10:04:28;29.90;86.30
2226;DHT22;1119;48.288;8.726;2023-06-22T10:06:55;29.80;86.70
2226;DHT22;1119;48.288;8.726;2023-06-22T10:09:23;29.70;87.30
2226;DHT22;1119;48.288;8.726;2023-06-22T10:11:51;29.70;85.50
2226;DHT22;1119;48.288;8.726;2023-06-22T10:14:19;29.60;86.30
2226;DHT22;1119;48.288;8.726;2023-06-22T10:16:47;29.70;85.40
2226;DHT22;1119;48.288;8.726;2023-06-22T10:19:15;29.80;85.80
2226;DHT22;1119;48.288;8.726;2023-06-22T10:21:42;30.00;82.90
2226;DHT22;1119;48.288;8.726;2023-06-22T10:24:09;30.20;82.00
2226;DHT22;1119;48.288;8.726;2023-06-22T10:26:37;30.20;81.90
2226;DHT22;1119;48.288;8.726;2023-06-22T10:29:05;30.10;81.70
2226;DHT22;1119;48.288;8.726;2023-06-22T10:31:32;30.10;82.10
2226;DHT22;1119;48.288;8.726;2023-06-22T10:34:00;30.10;82.10
2226;DHT22;1119;48.288;8.726;2023-06-22T10:36:27;30.20;81.20
2226;DHT22;1119;48.288;8.726;2023-06-22T10:38:55;30.30;81.50
2226;DHT22;1119;48.288;8.726;2023-06-22T10:41:25;30.20;79.70
2226;DHT22;1119;48.288;8.726;2023-06-22T10:43:55;30.10;79.70
2226;DHT22;1119;48.288;8.726;2023-06-22T10:46:24;30.00;79.80
2226;DHT22;1119;48.288;8.726;2023-06-22T10:48:52;30.00;81.40
2226;DHT22;1119;48.288;8.726;2023-06-22T10:51:20;30.00;85.40
2226;DHT22;1119;48.288;8.726;2023-06-22T10:53:48;30.00;84.20
2226;DHT22;1119;48.288;8.726;2023-06-22T10:56:17;30.00;82.40
2226;DHT22;1119;48.288;8.726;2023-06-22T10:58:45;30.00;82.20
2226;DHT22;1119;48.288;8.726;2023-06-22T11:01:12;30.00;81.60
2226;DHT22;1119;48.288;8.726;2023-06-22T11:03:41;30.20;79.60
2226;DHT22;1119;48.288;8.726;2023-06-22T11:06:08;30.20;79.60
2226;DHT22;1119;48.288;8.726;2023-06-22T11:08:36;30.40;80.30
2226;DHT22;1119;48.288;8.726;2023-06-22T11:11:03;30.50;79.00
2226;DHT22;1119;48.288;8.726;2023-06-22T11:13:30;30.50;79.30
2226;DHT22;1119;48.288;8.726;2023-06-22T11:15:58;30.50;79.60
2226;DHT22;1119;48.288;8.726;2023-06-22T11:18:25;30.50;80.60
2226;DHT22;1119;48.288;8.726;2023-06-22T11:20:54;30.40;79.80
2226;DHT22;1119;48.288;8.726;2023-06-22T11:23:21;30.40;81.00
2226;DHT22;1119;48.288;8.726;2023-06-22T11:25:48;30.40;80.40
2226;DHT22;1119;48.288;8.726;2023-06-22T11:28:15;30.30;78.90
2226;DHT22;1119;48.288;8.726;2023-06-22T11:30:43;30.20;78.40
2226;DHT22;1119;48.288;8.726;2023-06-22T11:33:10;30.20;79.30
2226;DHT22;1119;48.288;8.726;2023-06-22T11:35:37;30.30;77.10
2226;DHT22;1119;48.288;8.726;2023-06-22T11:38:06;30.30;75.90
2226;DHT22;1119;48.288;8.726;2023-06-22T11:40:33;30.30;74.00
2226;DHT22;1119;48.288;8.726;2023-06-22T11:43:00;30.50;75.60
2226;DHT22;1119;48.288;8.726;2023-06-22T11:45:28;30.50;74.60
2226;DHT22;1119;48.288;8.726;2023-06-22T11:47:55;30.60;74.90
2226;DHT22;1119;48.288;8.726;2023-06-22T11:50:23;30.60;74.80
2226;DHT22;1119;48.288;8.726;2023-06-22T11:52:50;30.60;75.10
2226;DHT22;1119;48.288;8.726;2023-06-22T11:55:20;30.60;78.50
2226;DHT22;1119;48.288;8.726;2023-06-22T11:57:55;30.50;79.40
2226;DHT22;1119;48.288;8.726;2023-06-22T12:00:24;30.50;79.10
2226;DHT22;1119;48.288;8.726;2023-06-22T12:02:51;30.30;79.00
2226;DHT22;1119;48.288;8.726;2023-06-22T12:05:19;30.20;79.20
2226;DHT22;1119;48.288;8.726;2023-06-22T12:07:48;30.20;81.10
2226;DHT22;1119;48.288;8.726;2023-06-22T12:10:15;30.00;82.20
2226;DHT22;1119;48.288;8.726;2023-06-22T12:12:44;29.90;84.10
2226;DHT22;1119;48.288;8.726;2023-06-22T12:15:11;29.80;83.80
2226;DHT22;1119;48.288;8.726;2023-06-22T12:17:39;29.70;85.10
2226;DHT22;1119;48.288;8.726;2023-06-22T12:20:08;29.60;85.10
2226;DHT22;1119;48.288;8.726;2023-06-22T12:22:36;29.60;85.70
2226;DHT22;1119;48.288;8.726;2023-06-22T12:25:04;29.50;84.90
2226;DHT22;1119;48.288;8.726;2023-06-22T12:27:32;29.60;85.50
2226;DHT22;1119;48.288;8.726;2023-06-22T12:30:01;29.60;86.80
2226;DHT22;1119;48.288;8.726;2023-06-22T12:32:29;29.70;86.60
2226;DHT22;1119;48.288;8.726;2023-06-22T12:34:57;29.60;85.70
2226;DHT22;1119;48.288;8.726;2023-06-22T12:37:25;29.70;84.80
2226;DHT22;1119;48.288;8.726;2023-06-22T12:39:54;29.70;85.30
2226;DHT22;1119;48.288;8.726;2023-06-22T12:42:22;29.80;85.30
2226;DHT22;1119;48.288;8.726;2023-06-22T12:44:49;29.80;87.00
2226;DHT22;1119;48.288;8.726;2023-06-22T12:47:18;29.90;85.30
2226;DHT22;1119;48.288;8.726;2023-06-22T12:49:46;29.90;86.20
2226;DHT22;1119;48.288;8.726;2023-06-22T12:52:13;29.90;85.60
2226;DHT22;1119;48.288;8.726;2023-06-22T12:54:40;29.90;86.50
2226;DHT22;1119;48.288;8.726;2023-06-22T12:57:07;30.00;86.30
2226;DHT22;1119;48.288;8.726;2023-06-22T12:59:34;30.00;86.60
2226;DHT22;1119;48.288;8.726;2023-06-22T13:02:02;30.00;84.60
2226;DHT22;1119;48.288;8.726;2023-06-22T13:04:31;30.10;85.70
2226;DHT22;1119;48.288;8.726;2023-06-22T13:06:58;30.20;85.60
2226;DHT22;1119;48.288;8.726;2023-06-22T13:09:25;30.20;86.20
2226;DHT22;1119;48.288;8.726;2023-06-22T13:11:52;30.20;85.40
2226;DHT22;1119;48.288;8.726;2023-06-22T13:14:20;30.30;83.00
2226;DHT22;1119;48.288;8.726;2023-06-22T13:16:47;30.30;79.90
2226;DHT22;1119;48.288;8.726;2023-06-22T13:19:15;30.20;79.20
2226;DHT22;1119;48.288;8.726;2023-06-22T13:21:43;30.10;79.80
2226;DHT22;1119;48.288;8.726;2023-06-22T13:24:11;30.10;80.10
2226;DHT22;1119;48.288;8.726;2023-06-22T13:26:38;30.10;80.90
2226;DHT22;1119;48.288;8.726;2023-06-22T13:29:05;30.20;80.00
2226;DHT22;1119;48.288;8.726;2023-06-22T13:31:32;30.20;79.70
2226;DHT22;1119;48.288;8.726;2023-06-22T13:34:00;30.20;79.10
2226;DHT22;1119;48.288;8.726;2023-06-22T13:36:27;30.10;78.30
2226;DHT22;1119;48.288;8.726;2023-06-22T13:38:57;30.10;78.20
2226;DHT22;1119;48.288;8.726;2023-06-22T13:41:25;30.00;78.70
2226;DHT22;1119;48.288;8.726;2023-06-22T13:43:52;30.00;81.10
2226;DHT22;1119;48.288;8.726;2023-06-22T13:46:19;30.00;79.30
2226;DHT22;1119;48.288;8.726;2023-06-22T13:48:47;30.00;81.00
2226;DHT22;1119;48.288;8.726;2023-06-22T13:51:14;29.90;79.10
2226;DHT22;1119;48.288;8.726;2023-06-22T13:53:41;29.80;79.00
2226;DHT22;1119;48.288;8.726;2023-06-22T13:56:10;29.80;80.40
2226;DHT22;1119;48.288;8.726;2023-06-22T13:58:37;29.80;80.80
2226;DHT22;1119;48.288;8.726;2023-06-22T14:01:05;29.90;79.60
2226;DHT22;1119;48.288;8.726;2023-06-22T14:03:32;30.00;81.20
2226;DHT22;1119;48.288;8.726;2023-06-22T14:05:59;30.20;82.00
2226;DHT22;1119;48.288;8.726;2023-06-22T14:08:26;30.30;82.50
2226;DHT22;1119;48.288;8.726;2023-06-22T14:10:54;30.30;75.10
2226;DHT22;1119;48.288;8.726;2023-06-22T14:13:22;30.20;75.10
2226;DHT22;1119;48.288;8.726;2023-06-22T14:15:50;30.30;75.70
2226;DHT22;1119;48.288;8.726;2023-06-22T14:18:18;30.30;67.80
2226;DHT22;1119;48.288;8.726;2023-06-22T14:20:45;30.00;65.50
2226;DHT22;1119;48.288;8.726;2023-06-22T14:23:13;29.90;66.30
2226;DHT22;1119;48.288;8.726;2023-06-22T14:25:41;29.70;65.20
2226;DHT22;1119;48.288;8.726;2023-06-22T14:28:08;29.70;66.30
2226;DHT22;1119;48.288;8.726;2023-06-22T14:30:36;29.70;65.90
2226;DHT22;1119;48.288;8.726;2023-06-22T14:33:04;29.60;65.90
2226;DHT22;1119;48.288;8.726;2023-06-22T14:35:31;29.60;65.20
2226;DHT22;1119;48.288;8.726;2023-06-22T14:37:58;29.50;62.80
2226;DHT22;1119;48.288;8.726;2023-06-22T14:40:25;29.40;63.60
2226;DHT22;1119;48.288;8.726;2023-06-22T14:42:53;29.50;65.90
2226;DHT22;1119;48.288;8.726;2023-06-22T14:45:22;29.50;64.20
2226;DHT22;1119;48.288;8.726;2023-06-22T14:47:51;29.60;63.30
2226;DHT22;1119;48.288;8.726;2023-06-22T14:50:18;29.80;63.70
2226;DHT22;1119;48.288;8.726;2023-06-22T14:52:45;29.90;61.80
2226;DHT22;1119;48.288;8.726;2023-06-22T14:55:12;30.00;60.40
2226;DHT22;1119;48.288;8.726;2023-06-22T14:57:40;29.80;59.30
2226;DHT22;1119;48.288;8.726;2023-06-22T15:00:08;29.60;59.60
2226;DHT22;1119;48.288;8.726;2023-06-22T15:02:35;29.50;58.40
2226;DHT22;1119;48.288;8.726;2023-06-22T15:05:05;29.20;57.40
2226;DHT22;1119;48.288;8.726;2023-06-22T15:07:32;29.10;57.40
2226;DHT22;1119;48.288;8.726;2023-06-22T15:09:59;28.90;57.10
2226;DHT22;1119;48.288;8.726;2023-06-22T15:12:26;28.80;57.50
2226;DHT22;1119;48.288;8.726;2023-06-22T15:14:54;28.60;58.30
2226;DHT22;1119;48.288;8.726;2023-06-22T15:17:21;28.50;58.50
2226;DHT22;1119;48.288;8.726;2023-06-22T15:19:48;28.50;58.80
2226;DHT22;1119;48.288;8.726;2023-06-22T15:22:17;28.40;59.40
2226;DHT22;1119;48.288;8.726;2023-06-22T15:24:45;28.30;59.50
2226;DHT22;1119;48.288;8.726;2023-06-22T15:27:13;28.30;59.70
2226;DHT22;1119;48.288;8.726;2023-06-22T15:29:41;28.20;59.90
2226;DHT22;1119;48.288;8.726;2023-06-22T15:32:08;28.20;59.90
2226;DHT22;1119;48.288;8.726;2023-06-22T15:34:35;28.20;61.10
2226;DHT22;1119;48.288;8.726;2023-06-22T15:37:03;28.20;60.30
2226;DHT22;1119;48.288;8.726;2023-06-22T15:39:32;28.20;61.00
2226;DHT22;1119;48.288;8.726;2023-06-22T15:42:00;28.20;61.10
2226;DHT22;1119;48.288;8.726;2023-06-22T15:44:27;28.20;61.50
2226;DHT22;1119;48.288;8.726;2023-06-22T15:46:54;28.30;62.40
2226;DHT22;1119;48.288;8.726;2023-06-22T15:49:22;28.20;62.20
2226;DHT22;1119;48.288;8.726;2023-06-22T15:51:49;28.20;62.60
2226;DHT22;1119;48.288;8.726;2023-06-22T15:54:16;28.20;64.20
2226;DHT22;1119;48.288;8.726;2023-06-22T15:56:45;28.10;63.90
2226;DHT22;1119;48.288;8.726;2023-06-22T15:59:12;28.10;64.00
2226;DHT22;1119;48.288;8.726;2023-06-22T16:01:39;28.00;62.50
2226;DHT22;1119;48.288;8.726;2023-06-22T16:04:07;28.00;62.60
2226;DHT22;1119;48.288;8.726;2023-06-22T16:06:34;28.00;62.50
2226;DHT22;1119;48.288;8.726;2023-06-22T16:09:01;28.00;61.40
2226;DHT22;1119;48.288;8.726;2023-06-22T16:11:30;28.10;62.00
2226;DHT22;1119;48.288;8.726;2023-06-22T16:13:59;28.20;61.40